createdAt,value
2022-12-04T00:02:27.953Z,2.00
2022-12-04T00:05:32.269Z,2.00
2022-12-04T00:08:36.856Z,2.00
2022-12-04T00:11:41.543Z,2.00
2022-12-04T00:15:23.265Z,2.00
2022-12-04T00:18:10.157Z,1.90
2022-12-04T00:21:15.724Z,2.00
2022-12-04T00:24:20.627Z,1.90
2022-12-04T00:27:25.260Z,2.00
2022-12-04T00:30:29.676Z,2.00
2022-12-04T00:33:33.796Z,1.90
2022-12-04T00:36:38.360Z,2.00
2022-12-04T00:39:42.341Z,2.00
2022-12-04T00:42:46.936Z,2.00
2022-12-04T00:45:51.089Z,2.00
2022-12-04T00:48:55.500Z,2.00
2022-12-04T00:51:59.652Z,2.00
2022-12-04T00:55:04.386Z,2.00
2022-12-04T00:58:08.837Z,2.00
2022-12-04T01:01:18.080Z,2.00
2022-12-04T01:04:22.368Z,2.00
2022-12-04T01:07:26.727Z,2.00
2022-12-04T01:10:31.458Z,2.00
2022-12-04T01:13:35.872Z,2.10
2022-12-04T01:16:40.910Z,2.00
2022-12-04T01:19:45.176Z,2.10
2022-12-04T01:22:49.579Z,2.00
2022-12-04T01:25:55.329Z,2.00
2022-12-04T01:28:59.814Z,2.00
2022-12-04T01:32:04.426Z,2.00
2022-12-04T01:35:08.759Z,2.00
2022-12-04T01:38:13.413Z,2.00
2022-12-04T01:41:19.803Z,2.00
2022-12-04T01:44:25.288Z,2.00
2022-12-04T01:47:29.582Z,2.00
2022-12-04T01:50:33.616Z,2.10
2022-12-04T01:53:40.047Z,2.10
2022-12-04T01:56:46.581Z,2.00
2022-12-04T01:59:53.522Z,2.10
2022-12-04T02:02:58.431Z,2.10
2022-12-04T02:06:02.931Z,2.00
2022-12-04T02:09:07.052Z,2.10
2022-12-04T02:12:20.062Z,2.10
2022-12-04T02:15:33.500Z,2.10
2022-12-04T02:18:43.540Z,2.10
2022-12-04T02:21:49.391Z,2.10
2022-12-04T02:24:58.916Z,2.10
2022-12-04T02:28:22.919Z,2.00
2022-12-04T02:31:47.524Z,2.00
2022-12-04T02:35:06.355Z,2.10
2022-12-04T02:38:14.820Z,2.00
2022-12-04T02:41:25.223Z,2.10
2022-12-04T02:44:32.634Z,2.10
2022-12-04T02:47:37.888Z,2.10
2022-12-04T02:50:42.469Z,2.00
2022-12-04T02:53:50.565Z,2.10
2022-12-04T02:56:56.242Z,2.10
2022-12-04T03:00:01.503Z,2.10
2022-12-04T03:03:08.105Z,2.00
2022-12-04T03:06:13.363Z,2.10
2022-12-04T03:09:17.540Z,2.10
2022-12-04T03:12:42.634Z,2.10
2022-12-04T03:15:50.465Z,2.10
2022-12-04T03:19:15.247Z,2.10
2022-12-04T03:22:20.989Z,2.10
2022-12-04T03:25:28.715Z,2.10
2022-12-04T03:28:59.582Z,2.10
2022-12-04T03:32:22.395Z,2.10
2022-12-04T03:35:29.543Z,2.10
2022-12-04T03:38:38.960Z,2.10
2022-12-04T03:41:59.069Z,2.10
2022-12-04T03:45:22.222Z,2.10
2022-12-04T03:48:31.524Z,2.10
2022-12-04T03:51:39.319Z,2.10
2022-12-04T03:54:46.585Z,2.10
2022-12-04T03:57:52.629Z,2.10
2022-12-04T04:00:58.208Z,2.10
2022-12-04T04:04:05.087Z,2.10
2022-12-04T04:07:14.287Z,2.10
2022-12-04T04:10:21.124Z,2.00
2022-12-04T04:14:07.317Z,2.10
2022-12-04T04:17:38.215Z,2.10
2022-12-04T04:21:03.589Z,2.00
2022-12-04T04:24:16.498Z,2.00
2022-12-04T04:27:20.627Z,2.10
2022-12-04T04:30:25.889Z,2.00
2022-12-04T04:33:30.557Z,2.00
2022-12-04T04:36:41.001Z,2.00
2022-12-04T04:39:53.097Z,2.10
2022-12-04T04:43:00.045Z,2.00
2022-12-04T04:46:05.981Z,2.00
2022-12-04T04:49:12.302Z,2.10
2022-12-04T04:52:18.563Z,2.10
2022-12-04T04:55:23.503Z,2.00
2022-12-04T04:58:27.458Z,2.00
2022-12-04T05:01:31.343Z,2.00
2022-12-04T05:04:35.970Z,2.10
2022-12-04T05:07:40.688Z,2.10
2022-12-04T05:10:45.322Z,2.10
2022-12-04T05:13:49.407Z,2.00
2022-12-04T05:16:53.691Z,2.00
2022-12-04T05:19:58.277Z,2.10
2022-12-04T05:23:02.853Z,2.00
2022-12-04T05:26:07.598Z,2.00
2022-12-04T05:29:11.830Z,2.00
2022-12-04T05:32:15.951Z,2.00
2022-12-04T05:35:20.356Z,1.90
2022-12-04T05:38:24.372Z,2.00
2022-12-04T05:41:29.120Z,2.00
2022-12-04T05:44:33.247Z,2.00
2022-12-04T05:47:44.168Z,2.10
2022-12-04T05:50:48.299Z,2.00
2022-12-04T05:53:52.788Z,2.00
2022-12-04T05:56:57.329Z,2.00
2022-12-04T06:00:01.751Z,2.00
2022-12-04T06:03:06.575Z,1.90
2022-12-04T06:06:21.885Z,1.90
2022-12-04T06:09:26.868Z,1.90
2022-12-04T06:12:31.320Z,1.90
2022-12-04T06:15:39.738Z,1.90
2022-12-04T06:18:44.222Z,1.90
2022-12-04T06:21:50.531Z,1.90
2022-12-04T06:24:54.824Z,1.90
2022-12-04T06:27:59.298Z,1.90
2022-12-04T06:31:05.126Z,1.80
2022-12-04T06:34:10.547Z,1.90
2022-12-04T06:37:15.074Z,1.90
2022-12-04T06:40:19.363Z,1.80
2022-12-04T06:43:24.048Z,1.80
2022-12-04T06:46:29.402Z,1.80
2022-12-04T06:49:33.447Z,1.80
2022-12-04T06:52:37.585Z,1.80
2022-12-04T06:55:47.040Z,1.80
2022-12-04T06:58:53.263Z,1.90
2022-12-04T07:01:57.730Z,1.70
2022-12-04T07:05:02.401Z,1.70
2022-12-04T07:08:06.912Z,1.70
2022-12-04T07:11:11.950Z,1.70
2022-12-04T07:14:16.989Z,1.70
2022-12-04T07:17:21.723Z,1.80
2022-12-04T07:20:26.060Z,1.70
2022-12-04T07:23:30.679Z,1.70
2022-12-04T07:26:35.025Z,1.80
2022-12-04T07:29:39.379Z,1.80
2022-12-04T07:32:43.590Z,1.70
2022-12-04T07:35:54.852Z,1.70
2022-12-04T07:38:59.309Z,1.60
2022-12-04T07:42:04.082Z,1.70
2022-12-04T07:45:08.971Z,1.70
2022-12-04T07:48:13.460Z,1.70
2022-12-04T07:51:18.778Z,1.70
2022-12-04T07:54:23.024Z,1.70
2022-12-04T07:57:27.701Z,1.70
2022-12-04T08:00:32.494Z,1.70
2022-12-04T08:03:39.781Z,1.60
2022-12-04T08:06:46.327Z,1.60
2022-12-04T08:09:50.768Z,1.70
2022-12-04T08:12:55.326Z,1.60
2022-12-04T08:16:07.446Z,1.60
2022-12-04T08:19:11.681Z,1.60
2022-12-04T08:22:19.126Z,1.70
2022-12-04T08:25:26.409Z,1.60
2022-12-04T08:28:31.381Z,1.70
2022-12-04T08:31:36.348Z,1.70
2022-12-04T08:34:40.502Z,1.80
2022-12-04T08:37:45.059Z,1.80
2022-12-04T08:40:49.266Z,1.80
2022-12-04T08:43:54.716Z,1.80
2022-12-04T08:46:59.040Z,1.80
2022-12-04T08:50:03.863Z,1.80
2022-12-04T08:53:08.132Z,1.90
2022-12-04T08:56:12.287Z,1.80
2022-12-04T08:59:16.489Z,1.90
2022-12-04T09:02:20.489Z,1.90
2022-12-04T09:05:25.188Z,1.90
2022-12-04T09:08:29.309Z,1.90
2022-12-04T09:11:33.202Z,1.90
2022-12-04T09:14:37.133Z,2.00
2022-12-04T09:17:41.454Z,2.00
2022-12-04T09:20:45.457Z,2.00
2022-12-04T09:23:49.391Z,2.00
2022-12-04T09:26:53.307Z,2.00
2022-12-04T09:29:57.513Z,2.00
2022-12-04T09:33:02.058Z,2.00
2022-12-04T09:36:06.452Z,2.00
2022-12-04T09:39:10.908Z,2.10
2022-12-04T09:42:18.052Z,2.10
2022-12-04T09:45:23.669Z,2.00
2022-12-04T09:48:32.253Z,2.10
2022-12-04T09:51:39.656Z,2.10
2022-12-04T09:54:44.755Z,2.00
2022-12-04T09:57:50.789Z,2.10
2022-12-04T10:00:56.450Z,2.10
2022-12-04T10:04:06.127Z,2.10
2022-12-04T10:07:14.063Z,2.10
2022-12-04T10:10:18.177Z,2.10
2022-12-04T10:13:41.063Z,2.10
2022-12-04T10:16:45.203Z,2.20
2022-12-04T10:19:55.826Z,2.20
2022-12-04T10:23:12.201Z,2.20
2022-12-04T10:26:20.791Z,2.20
2022-12-04T10:29:27.412Z,2.20
2022-12-04T10:32:33.129Z,2.20
2022-12-04T10:35:37.807Z,2.20
2022-12-04T10:38:49.640Z,2.20
2022-12-04T10:41:54.157Z,2.20
2022-12-04T10:44:58.416Z,2.30
2022-12-04T10:48:03.098Z,2.20
2022-12-04T10:51:12.904Z,2.20
2022-12-04T10:54:22.376Z,2.20
2022-12-04T10:57:37.799Z,2.20
2022-12-04T11:00:45.670Z,2.20
2022-12-04T11:03:59.338Z,2.20
2022-12-04T11:07:05.449Z,2.20
2022-12-04T11:10:25.353Z,2.30
2022-12-04T11:13:30.134Z,2.30
2022-12-04T11:16:39.427Z,2.30
2022-12-04T11:19:43.985Z,2.30
2022-12-04T11:22:52.790Z,2.30
2022-12-04T11:26:05.232Z,2.30
2022-12-04T11:29:13.457Z,2.30
2022-12-04T11:32:21.111Z,2.30
2022-12-04T11:35:27.262Z,2.30
2022-12-04T11:38:33.923Z,2.30
2022-12-04T11:41:39.062Z,2.50
2022-12-04T11:44:55.092Z,2.40
2022-12-04T11:48:00.614Z,2.30
2022-12-04T11:51:24.100Z,2.30
2022-12-04T11:54:33.128Z,2.40
2022-12-04T11:57:37.478Z,2.30
2022-12-04T12:00:50.480Z,2.40
2022-12-04T12:04:13.333Z,2.40
2022-12-04T12:07:36.102Z,2.40
2022-12-04T12:10:46.775Z,2.50
2022-12-04T12:14:02.908Z,2.40
2022-12-04T12:17:10.214Z,2.50
2022-12-04T12:20:17.117Z,2.50
2022-12-04T12:23:30.574Z,2.50
2022-12-04T12:26:43.626Z,2.50
2022-12-04T12:30:03.536Z,2.50
2022-12-04T12:33:18.479Z,2.50
2022-12-04T12:36:24.823Z,2.60
2022-12-04T12:39:38.401Z,2.50
2022-12-04T12:42:47.366Z,2.50
2022-12-04T12:45:54.391Z,2.50
2022-12-04T12:49:15.218Z,2.60
2022-12-04T12:52:22.368Z,2.50
2022-12-04T12:55:47.318Z,2.50
2022-12-04T12:58:54.232Z,2.60
2022-12-04T13:02:02.942Z,2.60
2022-12-04T13:05:12.211Z,2.50
2022-12-04T13:08:19.697Z,2.60
2022-12-04T13:11:25.598Z,2.60
2022-12-04T13:14:30.044Z,2.60
2022-12-04T13:17:37.259Z,2.60
2022-12-04T13:20:50.309Z,2.60
2022-12-04T13:24:06.722Z,2.60
2022-12-04T13:27:20.108Z,2.70
2022-12-04T13:30:27.659Z,2.70
2022-12-04T13:33:50.464Z,2.60
2022-12-04T13:37:00.893Z,2.60
2022-12-04T13:40:14.728Z,2.60
2022-12-04T13:43:25.563Z,2.70
2022-12-04T13:46:37.553Z,2.70
2022-12-04T13:49:45.922Z,2.70
2022-12-04T13:52:50.787Z,2.70
2022-12-04T13:55:56.348Z,2.70
2022-12-04T13:59:02.145Z,2.70
2022-12-04T14:02:37.740Z,2.70
2022-12-04T14:05:43.330Z,2.70
2022-12-04T14:08:47.908Z,2.70
2022-12-04T14:11:54.031Z,2.70
2022-12-04T14:14:59.361Z,2.80
2022-12-04T14:18:13.324Z,2.80
2022-12-04T14:21:17.899Z,2.80
2022-12-04T14:24:30.465Z,2.70
2022-12-04T14:27:43.624Z,2.80
2022-12-04T14:30:57.831Z,2.80
2022-12-04T14:34:10.438Z,2.80
2022-12-04T14:37:21.285Z,2.80
2022-12-04T14:40:26.862Z,2.80
2022-12-04T14:43:44.314Z,2.80
2022-12-04T14:46:50.932Z,2.80
2022-12-04T14:50:11.836Z,2.80
2022-12-04T14:53:19.129Z,2.80
2022-12-04T14:56:38.772Z,2.80
2022-12-04T14:59:45.394Z,2.80
2022-12-04T15:02:51.939Z,2.80
2022-12-04T15:06:06.960Z,2.80
2022-12-04T15:09:35.528Z,2.80
2022-12-04T15:12:58.226Z,2.90
2022-12-04T15:16:10.960Z,2.80
2022-12-04T15:19:19.002Z,2.90
2022-12-04T15:22:24.755Z,2.90
2022-12-04T15:25:31.757Z,2.90
2022-12-04T15:28:41.922Z,3.00
2022-12-04T15:31:49.115Z,2.90
2022-12-04T15:34:55.410Z,2.90
2022-12-04T15:38:00.421Z,2.90
2022-12-04T15:41:04.624Z,2.90
2022-12-04T15:44:28.894Z,2.90
2022-12-04T15:47:37.465Z,2.90
2022-12-04T15:50:41.857Z,3.00
2022-12-04T15:53:46.745Z,3.00
2022-12-04T15:57:01.136Z,3.00
2022-12-04T16:00:06.969Z,3.00
2022-12-04T16:03:23.252Z,3.00
2022-12-04T16:06:29.052Z,3.00
2022-12-04T16:09:33.536Z,3.10
2022-12-04T16:12:38.000Z,3.10
2022-12-04T16:15:43.621Z,3.10
2022-12-04T16:18:48.241Z,3.10
2022-12-04T16:21:52.835Z,3.10
2022-12-04T16:24:57.524Z,3.10
2022-12-04T16:28:01.886Z,3.10
2022-12-04T16:31:06.496Z,3.10
2022-12-04T16:34:14.211Z,3.10
2022-12-04T16:37:20.063Z,3.20
2022-12-04T16:40:24.358Z,3.10
2022-12-04T16:43:28.960Z,3.20
2022-12-04T16:46:33.078Z,3.20
2022-12-04T16:49:37.813Z,3.30
2022-12-04T16:52:42.065Z,3.20
2022-12-04T16:55:47.945Z,3.20
2022-12-04T16:58:52.450Z,3.30
2022-12-04T17:01:56.830Z,3.30
2022-12-04T17:05:01.738Z,3.30
2022-12-04T17:08:06.184Z,3.30
2022-12-04T17:11:14.547Z,3.20
2022-12-04T17:14:19.003Z,3.40
2022-12-04T17:17:23.163Z,3.40
2022-12-04T17:20:27.579Z,3.30
2022-12-04T17:23:32.025Z,3.40
2022-12-04T17:26:36.511Z,3.40
2022-12-04T17:29:41.040Z,3.40
2022-12-04T17:32:46.518Z,3.40
2022-12-04T17:35:50.979Z,3.50
2022-12-04T17:38:55.951Z,3.50
2022-12-04T17:42:00.162Z,3.50
2022-12-04T17:45:04.892Z,3.40
2022-12-04T17:48:09.217Z,3.40
2022-12-04T17:51:15.677Z,3.40
2022-12-04T17:54:19.910Z,3.50
2022-12-04T17:57:24.648Z,3.50
2022-12-04T18:00:29.386Z,3.50
2022-12-04T18:03:33.876Z,3.50
2022-12-04T18:06:40.890Z,3.40
2022-12-04T18:09:45.233Z,3.60
2022-12-04T18:12:49.994Z,3.50
2022-12-04T18:15:54.871Z,3.50
2022-12-04T18:19:00.836Z,3.50
2022-12-04T18:22:05.012Z,3.50
2022-12-04T18:25:09.433Z,3.50
2022-12-04T18:28:14.026Z,3.50
2022-12-04T18:31:19.295Z,3.50
2022-12-04T18:34:24.015Z,3.50
2022-12-04T18:37:28.281Z,3.50
2022-12-04T18:40:34.849Z,3.50
2022-12-04T18:43:39.883Z,3.50
2022-12-04T18:46:44.667Z,3.50
2022-12-04T18:49:48.812Z,3.50
2022-12-04T18:52:58.812Z,3.50
2022-12-04T18:56:05.501Z,3.60
2022-12-04T18:59:14.104Z,3.60
2022-12-04T19:02:18.727Z,3.60
2022-12-04T19:05:23.338Z,3.60
2022-12-04T19:08:32.741Z,3.60
2022-12-04T19:11:38.428Z,3.60
2022-12-04T19:14:42.417Z,3.60
2022-12-04T19:17:46.650Z,3.70
2022-12-04T19:20:51.260Z,3.60
2022-12-04T19:23:58.835Z,3.70
2022-12-04T19:27:10.841Z,3.70
2022-12-04T19:30:15.057Z,3.70
2022-12-04T19:33:19.473Z,3.70
2022-12-04T19:36:24.825Z,3.80
2022-12-04T19:39:31.010Z,3.70
2022-12-04T19:42:35.600Z,3.70
2022-12-04T19:45:39.775Z,3.70
2022-12-04T19:48:46.169Z,3.70
2022-12-04T19:51:50.703Z,3.70
2022-12-04T19:54:55.727Z,3.80
2022-12-04T19:58:01.559Z,3.80
2022-12-04T20:01:07.114Z,3.80
2022-12-04T20:04:11.304Z,3.80
2022-12-04T20:07:15.785Z,3.70
2022-12-04T20:10:20.945Z,3.80
2022-12-04T20:13:25.413Z,3.70
2022-12-04T20:16:30.298Z,3.70
2022-12-04T20:19:34.700Z,3.70
2022-12-04T20:22:39.467Z,3.70
2022-12-04T20:25:43.570Z,3.70
2022-12-04T20:28:48.637Z,3.70
2022-12-04T20:31:52.814Z,3.70
2022-12-04T20:34:57.497Z,3.70
2022-12-04T20:38:02.751Z,3.70
2022-12-04T20:41:07.824Z,3.70
2022-12-04T20:44:13.343Z,3.70
2022-12-04T20:47:17.508Z,3.70
2022-12-04T20:50:21.610Z,3.70
2022-12-04T20:53:26.197Z,3.70
2022-12-04T20:56:33.033Z,3.80
2022-12-04T20:59:37.275Z,3.70
2022-12-04T21:02:43.352Z,3.70
2022-12-04T21:05:48.850Z,3.90
2022-12-04T21:08:53.805Z,3.70
2022-12-04T21:11:58.597Z,3.80
2022-12-04T21:15:21.701Z,3.80
2022-12-04T21:18:26.161Z,3.80
2022-12-04T21:21:30.748Z,3.80
2022-12-04T21:24:38.682Z,3.80
2022-12-04T21:27:42.980Z,3.70
2022-12-04T21:30:47.670Z,3.80
2022-12-04T21:33:52.145Z,3.80
2022-12-04T21:36:56.433Z,3.70
2022-12-04T21:40:00.976Z,3.80
2022-12-04T21:43:05.077Z,3.70
2022-12-04T21:46:09.740Z,3.70
2022-12-04T21:49:14.221Z,3.70
2022-12-04T21:52:19.011Z,3.80
2022-12-04T21:55:23.343Z,3.80
2022-12-04T21:58:28.962Z,3.80
2022-12-04T22:01:33.558Z,3.70
2022-12-04T22:04:38.016Z,3.80
2022-12-04T22:07:42.245Z,3.70
2022-12-04T22:10:47.296Z,3.70
2022-12-04T22:13:51.482Z,3.80
2022-12-04T22:16:55.936Z,3.70
2022-12-04T22:20:00.478Z,3.70
2022-12-04T22:23:04.638Z,3.70
2022-12-04T22:26:10.082Z,3.70
2022-12-04T22:29:48.584Z,3.70
2022-12-04T22:32:38.731Z,3.70
2022-12-04T22:35:43.237Z,3.70
2022-12-04T22:39:08.291Z,3.80
2022-12-04T22:42:11.565Z,3.70
2022-12-04T22:45:16.115Z,3.70
2022-12-04T22:48:20.668Z,3.70
2022-12-04T22:51:24.773Z,3.70
2022-12-04T22:54:29.318Z,3.80
2022-12-04T22:57:34.239Z,3.70
2022-12-04T23:00:38.988Z,3.70
2022-12-04T23:03:43.113Z,3.70
2022-12-04T23:06:47.159Z,3.70
2022-12-04T23:09:51.409Z,3.70
2022-12-04T23:12:55.396Z,3.70
2022-12-04T23:16:02.448Z,3.70
2022-12-04T23:19:10.755Z,3.60
2022-12-04T23:22:14.995Z,3.70
2022-12-04T23:25:19.631Z,3.70
2022-12-04T23:28:23.735Z,3.60
2022-12-04T23:31:28.995Z,3.60
2022-12-04T23:34:33.658Z,3.60
2022-12-04T23:37:37.683Z,3.60
2022-12-04T23:40:41.804Z,3.60
2022-12-04T23:43:47.095Z,3.60
2022-12-04T23:46:51.689Z,3.60
2022-12-04T23:49:56.282Z,3.60
2022-12-04T23:53:00.392Z,3.60
2022-12-04T23:56:06.991Z,3.60
2022-12-04T23:59:11.602Z,3.60
